sensor_id;sensor_type;location;lat;lon;timestamp;P1;durP1;ratioP1;P2;durP2;ratioP2
21731;SDS011;11028;51.156;17.130;2022-12-05T00:05:53;125.55;;;42.55;;
21731;SDS011;11028;51.156;17.130;2022-12-05T00:13:10;112.93;;;36.90;;
21731;SDS011;11028;51.156;17.130;2022-12-05T00:20:27;102.43;;;36.25;;
21731;SDS011;11028;51.156;17.130;2022-12-05T00:27:45;105.70;;;37.42;;
21731;SDS011;11028;51.156;17.130;2022-12-05T00:35:02;112.47;;;36.78;;
21731;SDS011;11028;51.156;17.130;2022-12-05T00:42:19;105.50;;;35.85;;
21731;SDS011;11028;51.156;17.130;2022-12-05T00:49:38;102.55;;;37.60;;
21731;SDS011;11028;51.156;17.130;2022-12-05T00:56:54;96.40;;;34.70;;
21731;SDS011;11028;51.156;17.130;2022-12-05T01:04:12;85.47;;;33.20;;
21731;SDS011;11028;51.156;17.130;2022-12-05T01:11:32;87.05;;;34.03;;
21731;SDS011;11028;51.156;17.130;2022-12-05T01:18:49;84.78;;;32.67;;
21731;SDS011;11028;51.156;17.130;2022-12-05T01:26:07;91.88;;;35.75;;
21731;SDS011;11028;51.156;17.130;2022-12-05T01:33:28;83.75;;;32.65;;
21731;SDS011;11028;51.156;17.130;2022-12-05T01:40:45;80.53;;;31.90;;
21731;SDS011;11028;51.156;17.130;2022-12-05T01:48:04;80.35;;;30.90;;
21731;SDS011;11028;51.156;17.130;2022-12-05T01:55:23;76.95;;;33.92;;
21731;SDS011;11028;51.156;17.130;2022-12-05T02:02:43;85.13;;;31.00;;
21731;SDS011;11028;51.156;17.130;2022-12-05T02:10:03;75.15;;;31.67;;
21731;SDS011;11028;51.156;17.130;2022-12-05T02:17:28;86.72;;;32.53;;
21731;SDS011;11028;51.156;17.130;2022-12-05T02:24:58;81.55;;;30.90;;
21731;SDS011;11028;51.156;17.130;2022-12-05T02:32:33;80.60;;;34.40;;
21731;SDS011;11028;51.156;17.130;2022-12-05T02:39:55;88.03;;;32.58;;
21731;SDS011;11028;51.156;17.130;2022-12-05T02:47:16;81.13;;;30.92;;
21731;SDS011;11028;51.156;17.130;2022-12-05T02:54:37;82.47;;;31.50;;
21731;SDS011;11028;51.156;17.130;2022-12-05T03:01:56;73.30;;;29.98;;
21731;SDS011;11028;51.156;17.130;2022-12-05T03:09:14;81.72;;;30.52;;
21731;SDS011;11028;51.156;17.130;2022-12-05T03:16:35;84.15;;;31.50;;
21731;SDS011;11028;51.156;17.130;2022-12-05T03:23:55;77.70;;;29.23;;
21731;SDS011;11028;51.156;17.130;2022-12-05T03:31:13;67.18;;;27.58;;
21731;SDS011;11028;51.156;17.130;2022-12-05T03:38:34;76.25;;;29.17;;
21731;SDS011;11028;51.156;17.130;2022-12-05T03:53:14;69.63;;;26.65;;
21731;SDS011;11028;51.156;17.130;2022-12-05T04:00:36;71.32;;;29.38;;
21731;SDS011;11028;51.156;17.130;2022-12-05T04:07:56;67.20;;;26.98;;
21731;SDS011;11028;51.156;17.130;2022-12-05T04:15:16;66.25;;;28.55;;
21731;SDS011;11028;51.156;17.130;2022-12-05T04:22:43;73.53;;;28.92;;
21731;SDS011;11028;51.156;17.130;2022-12-05T04:30:01;67.68;;;27.77;;
21731;SDS011;11028;51.156;17.130;2022-12-05T04:37:20;67.40;;;27.05;;
21731;SDS011;11028;51.156;17.130;2022-12-05T04:44:43;67.18;;;26.67;;
21731;SDS011;11028;51.156;17.130;2022-12-05T04:52:04;69.97;;;27.40;;
21731;SDS011;11028;51.156;17.130;2022-12-05T04:59:23;66.10;;;26.42;;
21731;SDS011;11028;51.156;17.130;2022-12-05T05:06:41;61.78;;;25.60;;
21731;SDS011;11028;51.156;17.130;2022-12-05T05:13:58;69.75;;;26.95;;
21731;SDS011;11028;51.156;17.130;2022-12-05T05:21:16;68.47;;;27.85;;
21731;SDS011;11028;51.156;17.130;2022-12-05T05:28:36;65.38;;;27.75;;
21731;SDS011;11028;51.156;17.130;2022-12-05T05:35:53;63.08;;;25.90;;
21731;SDS011;11028;51.156;17.130;2022-12-05T05:43:11;64.38;;;26.60;;
21731;SDS011;11028;51.156;17.130;2022-12-05T05:50:29;67.65;;;26.30;;
21731;SDS011;11028;51.156;17.130;2022-12-05T05:57:47;69.55;;;26.38;;
21731;SDS011;11028;51.156;17.130;2022-12-05T06:05:04;63.95;;;25.77;;
21731;SDS011;11028;51.156;17.130;2022-12-05T06:12:23;68.25;;;26.88;;
21731;SDS011;11028;51.156;17.130;2022-12-05T06:19:40;69.60;;;26.52;;
21731;SDS011;11028;51.156;17.130;2022-12-05T06:26:57;56.80;;;25.13;;
21731;SDS011;11028;51.156;17.130;2022-12-05T06:34:15;60.22;;;25.60;;
21731;SDS011;11028;51.156;17.130;2022-12-05T06:41:32;64.65;;;25.92;;
21731;SDS011;11028;51.156;17.130;2022-12-05T06:48:50;64.10;;;26.75;;
21731;SDS011;11028;51.156;17.130;2022-12-05T06:56:10;57.97;;;24.42;;
21731;SDS011;11028;51.156;17.130;2022-12-05T07:03:28;64.53;;;25.83;;
21731;SDS011;11028;51.156;17.130;2022-12-05T07:10:49;57.25;;;25.23;;
21731;SDS011;11028;51.156;17.130;2022-12-05T07:18:08;54.05;;;22.20;;
21731;SDS011;11028;51.156;17.130;2022-12-05T07:25:25;53.80;;;23.02;;
21731;SDS011;11028;51.156;17.130;2022-12-05T07:32:42;54.58;;;24.02;;
21731;SDS011;11028;51.156;17.130;2022-12-05T07:40:00;57.72;;;25.20;;
21731;SDS011;11028;51.156;17.130;2022-12-05T07:47:16;54.85;;;24.58;;
21731;SDS011;11028;51.156;17.130;2022-12-05T07:54:35;58.80;;;25.48;;
21731;SDS011;11028;51.156;17.130;2022-12-05T08:01:53;52.60;;;24.67;;
21731;SDS011;11028;51.156;17.130;2022-12-05T08:09:10;55.15;;;24.58;;
21731;SDS011;11028;51.156;17.130;2022-12-05T08:16:27;48.13;;;23.00;;
21731;SDS011;11028;51.156;17.130;2022-12-05T08:23:46;48.35;;;23.10;;
21731;SDS011;11028;51.156;17.130;2022-12-05T08:31:04;54.75;;;24.55;;
21731;SDS011;11028;51.156;17.130;2022-12-05T08:38:21;56.35;;;24.50;;
21731;SDS011;11028;51.156;17.130;2022-12-05T08:45:40;55.42;;;24.00;;
21731;SDS011;11028;51.156;17.130;2022-12-05T08:52:56;58.05;;;23.92;;
21731;SDS011;11028;51.156;17.130;2022-12-05T09:00:14;48.47;;;23.13;;
21731;SDS011;11028;51.156;17.130;2022-12-05T09:07:32;52.58;;;23.33;;
21731;SDS011;11028;51.156;17.130;2022-12-05T09:14:49;52.47;;;24.02;;
21731;SDS011;11028;51.156;17.130;2022-12-05T09:22:06;50.47;;;24.42;;
21731;SDS011;11028;51.156;17.130;2022-12-05T09:29:24;57.03;;;25.75;;
21731;SDS011;11028;51.156;17.130;2022-12-05T09:36:43;51.13;;;24.20;;
21731;SDS011;11028;51.156;17.130;2022-12-05T09:44:01;54.78;;;23.67;;
21731;SDS011;11028;51.156;17.130;2022-12-05T09:51:21;55.10;;;25.73;;
21731;SDS011;11028;51.156;17.130;2022-12-05T09:58:42;62.15;;;25.92;;
21731;SDS011;11028;51.156;17.130;2022-12-05T10:06:01;59.03;;;25.55;;
21731;SDS011;11028;51.156;17.130;2022-12-05T10:13:38;52.72;;;26.42;;
21731;SDS011;11028;51.156;17.130;2022-12-05T10:21:01;56.97;;;27.17;;
21731;SDS011;11028;51.156;17.130;2022-12-05T10:28:22;56.75;;;27.02;;
21731;SDS011;11028;51.156;17.130;2022-12-05T10:35:45;60.53;;;27.33;;
21731;SDS011;11028;51.156;17.130;2022-12-05T10:43:05;64.75;;;27.55;;
21731;SDS011;11028;51.156;17.130;2022-12-05T10:50:24;61.47;;;29.67;;
21731;SDS011;11028;51.156;17.130;2022-12-05T11:05:07;45.93;;;20.73;;
21731;SDS011;11028;51.156;17.130;2022-12-05T11:12:26;61.65;;;28.80;;
21731;SDS011;11028;51.156;17.130;2022-12-05T11:19:45;61.13;;;27.15;;
21731;SDS011;11028;51.156;17.130;2022-12-05T11:34:38;53.05;;;26.10;;
21731;SDS011;11028;51.156;17.130;2022-12-05T11:42:04;55.78;;;27.08;;
21731;SDS011;11028;51.156;17.130;2022-12-05T11:49:49;56.85;;;25.83;;
21731;SDS011;11028;51.156;17.130;2022-12-05T11:57:21;52.83;;;26.00;;
21731;SDS011;11028;51.156;17.130;2022-12-05T12:04:48;55.20;;;27.15;;
21731;SDS011;11028;51.156;17.130;2022-12-05T12:12:08;54.40;;;27.13;;
21731;SDS011;11028;51.156;17.130;2022-12-05T12:27:12;61.28;;;28.15;;
21731;SDS011;11028;51.156;17.130;2022-12-05T12:34:41;65.88;;;30.15;;
21731;SDS011;11028;51.156;17.130;2022-12-05T12:42:26;61.45;;;29.88;;
21731;SDS011;11028;51.156;17.130;2022-12-05T12:49:48;65.15;;;29.92;;
21731;SDS011;11028;51.156;17.130;2022-12-05T12:57:13;73.95;;;32.45;;
21731;SDS011;11028;51.156;17.130;2022-12-05T13:04:39;68.40;;;31.80;;
21731;SDS011;11028;51.156;17.130;2022-12-05T13:12:04;65.25;;;31.15;;
21731;SDS011;11028;51.156;17.130;2022-12-05T13:19:25;66.78;;;29.70;;
21731;SDS011;11028;51.156;17.130;2022-12-05T13:26:47;63.17;;;29.35;;
21731;SDS011;11028;51.156;17.130;2022-12-05T13:34:04;62.83;;;30.05;;
21731;SDS011;11028;51.156;17.130;2022-12-05T13:41:21;70.70;;;32.47;;
21731;SDS011;11028;51.156;17.130;2022-12-05T13:49:00;78.15;;;34.40;;
21731;SDS011;11028;51.156;17.130;2022-12-05T13:56:24;80.77;;;37.73;;
21731;SDS011;11028;51.156;17.130;2022-12-05T14:03:54;84.47;;;38.50;;
21731;SDS011;11028;51.156;17.130;2022-12-05T14:11:13;86.70;;;39.33;;
21731;SDS011;11028;51.156;17.130;2022-12-05T14:18:32;88.25;;;41.72;;
21731;SDS011;11028;51.156;17.130;2022-12-05T14:25:59;86.90;;;42.00;;
21731;SDS011;11028;51.156;17.130;2022-12-05T14:33:24;80.85;;;39.22;;
21731;SDS011;11028;51.156;17.130;2022-12-05T14:40:41;79.97;;;39.78;;
21731;SDS011;11028;51.156;17.130;2022-12-05T14:47:59;77.40;;;39.00;;
21731;SDS011;11028;51.156;17.130;2022-12-05T14:55:18;76.43;;;37.67;;
21731;SDS011;11028;51.156;17.130;2022-12-05T15:02:37;87.35;;;40.53;;
21731;SDS011;11028;51.156;17.130;2022-12-05T15:09:59;87.93;;;40.30;;
21731;SDS011;11028;51.156;17.130;2022-12-05T15:17:20;86.60;;;41.53;;
21731;SDS011;11028;51.156;17.130;2022-12-05T15:24:39;92.15;;;42.38;;
21731;SDS011;11028;51.156;17.130;2022-12-05T15:31:57;100.45;;;46.58;;
21731;SDS011;11028;51.156;17.130;2022-12-05T15:39:19;100.93;;;45.58;;
21731;SDS011;11028;51.156;17.130;2022-12-05T15:53:58;119.47;;;53.42;;
21731;SDS011;11028;51.156;17.130;2022-12-05T16:01:21;102.30;;;45.77;;
21731;SDS011;11028;51.156;17.130;2022-12-05T16:08:42;92.43;;;43.42;;
21731;SDS011;11028;51.156;17.130;2022-12-05T16:16:00;94.18;;;45.08;;
21731;SDS011;11028;51.156;17.130;2022-12-05T16:23:23;94.07;;;44.85;;
21731;SDS011;11028;51.156;17.130;2022-12-05T16:30:51;100.18;;;46.00;;
21731;SDS011;11028;51.156;17.130;2022-12-05T16:38:09;93.82;;;45.72;;
21731;SDS011;11028;51.156;17.130;2022-12-05T16:45:37;101.07;;;46.17;;
21731;SDS011;11028;51.156;17.130;2022-12-05T16:52:59;94.25;;;45.00;;
21731;SDS011;11028;51.156;17.130;2022-12-05T17:00:19;87.68;;;42.38;;
21731;SDS011;11028;51.156;17.130;2022-12-05T17:07:38;92.05;;;46.55;;
21731;SDS011;11028;51.156;17.130;2022-12-05T17:14:55;106.18;;;47.28;;
21731;SDS011;11028;51.156;17.130;2022-12-05T17:22:12;92.15;;;45.22;;
21731;SDS011;11028;51.156;17.130;2022-12-05T17:29:31;97.65;;;47.40;;
21731;SDS011;11028;51.156;17.130;2022-12-05T17:36:48;93.25;;;45.80;;
21731;SDS011;11028;51.156;17.130;2022-12-05T17:44:05;90.63;;;45.15;;
21731;SDS011;11028;51.156;17.130;2022-12-05T17:51:23;90.50;;;45.40;;
21731;SDS011;11028;51.156;17.130;2022-12-05T17:58:40;89.72;;;45.28;;
21731;SDS011;11028;51.156;17.130;2022-12-05T18:05:57;91.15;;;45.38;;
21731;SDS011;11028;51.156;17.130;2022-12-05T18:13:15;91.18;;;44.67;;
21731;SDS011;11028;51.156;17.130;2022-12-05T18:20:33;91.88;;;43.13;;
21731;SDS011;11028;51.156;17.130;2022-12-05T18:27:51;87.28;;;44.60;;
21731;SDS011;11028;51.156;17.130;2022-12-05T18:35:09;94.97;;;45.53;;
21731;SDS011;11028;51.156;17.130;2022-12-05T18:42:26;96.88;;;48.45;;
21731;SDS011;11028;51.156;17.130;2022-12-05T18:49:43;120.85;;;60.78;;
21731;SDS011;11028;51.156;17.130;2022-12-05T18:57:01;112.40;;;57.08;;
21731;SDS011;11028;51.156;17.130;2022-12-05T19:04:19;109.75;;;53.13;;
21731;SDS011;11028;51.156;17.130;2022-12-05T19:11:36;108.05;;;55.47;;
21731;SDS011;11028;51.156;17.130;2022-12-05T19:18:57;114.78;;;56.17;;
21731;SDS011;11028;51.156;17.130;2022-12-05T19:26:15;116.90;;;57.15;;
21731;SDS011;11028;51.156;17.130;2022-12-05T19:33:32;114.72;;;59.25;;
21731;SDS011;11028;51.156;17.130;2022-12-05T19:40:55;124.43;;;61.65;;
21731;SDS011;11028;51.156;17.130;2022-12-05T19:48:12;154.85;;;73.97;;
21731;SDS011;11028;51.156;17.130;2022-12-05T19:55:29;154.98;;;74.45;;
21731;SDS011;11028;51.156;17.130;2022-12-05T20:02:47;140.82;;;68.60;;
21731;SDS011;11028;51.156;17.130;2022-12-05T20:10:04;142.27;;;71.03;;
21731;SDS011;11028;51.156;17.130;2022-12-05T20:17:22;138.23;;;69.00;;
21731;SDS011;11028;51.156;17.130;2022-12-05T20:24:40;130.60;;;66.57;;
21731;SDS011;11028;51.156;17.130;2022-12-05T20:31:57;140.30;;;66.55;;
21731;SDS011;11028;51.156;17.130;2022-12-05T20:39:14;133.45;;;65.90;;
21731;SDS011;11028;51.156;17.130;2022-12-05T20:46:33;136.15;;;65.38;;
21731;SDS011;11028;51.156;17.130;2022-12-05T20:53:51;136.45;;;70.35;;
21731;SDS011;11028;51.156;17.130;2022-12-05T21:01:08;138.45;;;68.72;;
21731;SDS011;11028;51.156;17.130;2022-12-05T21:08:27;115.90;;;56.28;;
21731;SDS011;11028;51.156;17.130;2022-12-05T21:15:44;113.93;;;57.88;;
21731;SDS011;11028;51.156;17.130;2022-12-05T21:23:02;111.40;;;52.30;;
21731;SDS011;11028;51.156;17.130;2022-12-05T21:30:20;107.65;;;51.60;;
21731;SDS011;11028;51.156;17.130;2022-12-05T21:37:37;118.10;;;56.42;;
21731;SDS011;11028;51.156;17.130;2022-12-05T21:44:54;124.60;;;58.45;;
21731;SDS011;11028;51.156;17.130;2022-12-05T21:52:12;118.25;;;57.60;;
21731;SDS011;11028;51.156;17.130;2022-12-05T21:59:29;109.63;;;55.55;;
21731;SDS011;11028;51.156;17.130;2022-12-05T22:06:47;122.88;;;57.53;;
21731;SDS011;11028;51.156;17.130;2022-12-05T22:14:05;114.53;;;55.85;;
21731;SDS011;11028;51.156;17.130;2022-12-05T22:21:22;102.55;;;52.70;;
21731;SDS011;11028;51.156;17.130;2022-12-05T22:28:39;117.68;;;59.50;;
21731;SDS011;11028;51.156;17.130;2022-12-05T22:35:58;119.45;;;60.80;;
21731;SDS011;11028;51.156;17.130;2022-12-05T22:43:15;129.82;;;63.60;;
21731;SDS011;11028;51.156;17.130;2022-12-05T22:50:32;126.13;;;64.57;;
21731;SDS011;11028;51.156;17.130;2022-12-05T22:57:50;122.50;;;58.80;;
21731;SDS011;11028;51.156;17.130;2022-12-05T23:05:07;108.78;;;52.35;;
21731;SDS011;11028;51.156;17.130;2022-12-05T23:12:24;102.05;;;51.97;;
21731;SDS011;11028;51.156;17.130;2022-12-05T23:19:43;110.72;;;52.47;;
21731;SDS011;11028;51.156;17.130;2022-12-05T23:27:00;107.30;;;52.90;;
21731;SDS011;11028;51.156;17.130;2022-12-05T23:34:17;109.95;;;53.00;;
21731;SDS011;11028;51.156;17.130;2022-12-05T23:41:35;120.63;;;59.70;;
21731;SDS011;11028;51.156;17.130;2022-12-05T23:48:52;122.38;;;59.92;;
21731;SDS011;11028;51.156;17.130;2022-12-05T23:56:10;110.25;;;51.50;;
